sensor_id;sensor_type;location;lat;lon;timestamp;P1;durP1;ratioP1;P2;durP2;ratioP2
80193;SDS011;69515;42.072;21.504;2024-03-02T00:00:15;6.32;;;4.30;;
80193;SDS011;69515;42.072;21.504;2024-03-02T00:02:43;4.75;;;2.90;;
80193;SDS011;69515;42.072;21.504;2024-03-02T00:05:10;6.80;;;3.88;;
80193;SDS011;69515;42.072;21.504;2024-03-02T00:07:37;6.15;;;2.70;;
80193;SDS011;69515;42.072;21.504;2024-03-02T00:10:07;4.35;;;2.30;;
80193;SDS011;69515;42.072;21.504;2024-03-02T00:12:36;6.53;;;2.50;;
80193;SDS011;69515;42.072;21.504;2024-03-02T00:15:04;4.45;;;2.03;;
80193;SDS011;69515;42.072;21.504;2024-03-02T00:17:31;4.32;;;2.20;;
80193;SDS011;69515;42.072;21.504;2024-03-02T00:19:57;4.35;;;2.25;;
80193;SDS011;69515;42.072;21.504;2024-03-02T00:22:23;5.13;;;3.03;;
80193;SDS011;69515;42.072;21.504;2024-03-02T00:24:49;5.80;;;3.70;;
80193;SDS011;69515;42.072;21.504;2024-03-02T00:27:16;5.43;;;3.15;;
80193;SDS011;69515;42.072;21.504;2024-03-02T00:29:44;6.93;;;4.50;;
80193;SDS011;69515;42.072;21.504;2024-03-02T00:32:13;7.35;;;4.63;;
80193;SDS011;69515;42.072;21.504;2024-03-02T00:34:39;62.55;;;9.30;;
80193;SDS011;69515;42.072;21.504;2024-03-02T00:37:06;241.55;;;27.17;;
80193;SDS011;69515;42.072;21.504;2024-03-02T00:39:32;123.53;;;15.25;;
80193;SDS011;69515;42.072;21.504;2024-03-02T00:41:59;318.73;;;31.45;;
80193;SDS011;69515;42.072;21.504;2024-03-02T00:44:25;92.75;;;15.57;;
80193;SDS011;69515;42.072;21.504;2024-03-02T00:46:52;303.35;;;33.25;;
80193;SDS011;69515;42.072;21.504;2024-03-02T00:49:20;371.25;;;36.25;;
80193;SDS011;69515;42.072;21.504;2024-03-02T00:51:51;372.05;;;37.50;;
80193;SDS011;69515;42.072;21.504;2024-03-02T00:54:21;457.65;;;48.90;;
80193;SDS011;69515;42.072;21.504;2024-03-02T00:56:49;481.90;;;44.13;;
80193;SDS011;69515;42.072;21.504;2024-03-02T00:59:16;381.35;;;38.83;;
80193;SDS011;69515;42.072;21.504;2024-03-02T01:01:42;136.80;;;19.10;;
80193;SDS011;69515;42.072;21.504;2024-03-02T01:04:09;64.85;;;14.05;;
80193;SDS011;69515;42.072;21.504;2024-03-02T01:06:35;25.65;;;9.13;;
80193;SDS011;69515;42.072;21.504;2024-03-02T01:09:01;11.23;;;6.75;;
80193;SDS011;69515;42.072;21.504;2024-03-02T01:11:28;10.68;;;7.28;;
80193;SDS011;69515;42.072;21.504;2024-03-02T01:13:55;8.52;;;6.18;;
80193;SDS011;69515;42.072;21.504;2024-03-02T01:16:21;7.80;;;5.07;;
80193;SDS011;69515;42.072;21.504;2024-03-02T01:18:47;8.82;;;5.55;;
80193;SDS011;69515;42.072;21.504;2024-03-02T01:21:14;7.05;;;5.38;;
80193;SDS011;69515;42.072;21.504;2024-03-02T01:23:40;7.70;;;5.68;;
80193;SDS011;69515;42.072;21.504;2024-03-02T01:26:06;7.57;;;5.40;;
80193;SDS011;69515;42.072;21.504;2024-03-02T01:28:33;8.02;;;5.50;;
80193;SDS011;69515;42.072;21.504;2024-03-02T01:30:59;8.00;;;5.00;;
80193;SDS011;69515;42.072;21.504;2024-03-02T01:33:27;7.80;;;4.90;;
80193;SDS011;69515;42.072;21.504;2024-03-02T01:35:53;6.05;;;4.13;;
80193;SDS011;69515;42.072;21.504;2024-03-02T01:38:19;8.18;;;5.25;;
80193;SDS011;69515;42.072;21.504;2024-03-02T01:40:45;7.40;;;4.72;;
80193;SDS011;69515;42.072;21.504;2024-03-02T01:43:12;6.78;;;4.57;;
80193;SDS011;69515;42.072;21.504;2024-03-02T01:45:38;6.70;;;4.20;;
80193;SDS011;69515;42.072;21.504;2024-03-02T01:48:05;6.75;;;4.25;;
80193;SDS011;69515;42.072;21.504;2024-03-02T01:50:32;6.80;;;4.00;;
80193;SDS011;69515;42.072;21.504;2024-03-02T01:52:58;6.28;;;3.80;;
80193;SDS011;69515;42.072;21.504;2024-03-02T01:55:25;6.43;;;3.53;;
80193;SDS011;69515;42.072;21.504;2024-03-02T01:57:54;6.75;;;3.70;;
80193;SDS011;69515;42.072;21.504;2024-03-02T02:00:20;6.18;;;3.70;;
80193;SDS011;69515;42.072;21.504;2024-03-02T02:02:50;5.85;;;3.75;;
80193;SDS011;69515;42.072;21.504;2024-03-02T02:05:16;6.15;;;3.85;;
80193;SDS011;69515;42.072;21.504;2024-03-02T02:07:42;7.18;;;3.60;;
80193;SDS011;69515;42.072;21.504;2024-03-02T02:10:09;6.28;;;3.53;;
80193;SDS011;69515;42.072;21.504;2024-03-02T02:12:36;6.47;;;3.63;;
80193;SDS011;69515;42.072;21.504;2024-03-02T02:15:02;5.35;;;3.35;;
80193;SDS011;69515;42.072;21.504;2024-03-02T02:17:29;6.55;;;3.53;;
80193;SDS011;69515;42.072;21.504;2024-03-02T02:19:55;5.97;;;3.15;;
80193;SDS011;69515;42.072;21.504;2024-03-02T02:22:21;7.93;;;3.22;;
80193;SDS011;69515;42.072;21.504;2024-03-02T02:24:47;6.35;;;3.33;;
80193;SDS011;69515;42.072;21.504;2024-03-02T02:27:14;4.80;;;2.80;;
80193;SDS011;69515;42.072;21.504;2024-03-02T02:29:40;5.10;;;2.83;;
80193;SDS011;69515;42.072;21.504;2024-03-02T02:32:07;4.53;;;2.50;;
80193;SDS011;69515;42.072;21.504;2024-03-02T02:37:22;4.97;;;2.55;;
80193;SDS011;69515;42.072;21.504;2024-03-02T02:39:49;5.25;;;2.67;;
80193;SDS011;69515;42.072;21.504;2024-03-02T02:42:15;4.20;;;2.53;;
80193;SDS011;69515;42.072;21.504;2024-03-02T02:44:41;6.05;;;3.08;;
80193;SDS011;69515;42.072;21.504;2024-03-02T02:47:07;7.00;;;3.03;;
80193;SDS011;69515;42.072;21.504;2024-03-02T02:49:33;5.22;;;3.22;;
80193;SDS011;69515;42.072;21.504;2024-03-02T02:52:00;6.45;;;2.90;;
80193;SDS011;69515;42.072;21.504;2024-03-02T02:54:26;6.20;;;2.75;;
80193;SDS011;69515;42.072;21.504;2024-03-02T02:56:52;5.75;;;2.75;;
80193;SDS011;69515;42.072;21.504;2024-03-02T02:59:18;6.22;;;2.92;;
80193;SDS011;69515;42.072;21.504;2024-03-02T03:01:44;6.32;;;3.00;;
80193;SDS011;69515;42.072;21.504;2024-03-02T03:04:11;5.05;;;2.70;;
80193;SDS011;69515;42.072;21.504;2024-03-02T03:06:37;4.53;;;2.67;;
80193;SDS011;69515;42.072;21.504;2024-03-02T03:09:04;5.35;;;2.67;;
80193;SDS011;69515;42.072;21.504;2024-03-02T03:11:30;6.18;;;2.70;;
80193;SDS011;69515;42.072;21.504;2024-03-02T03:13:56;4.32;;;2.33;;
80193;SDS011;69515;42.072;21.504;2024-03-02T03:16:22;5.45;;;2.40;;
80193;SDS011;69515;42.072;21.504;2024-03-02T03:18:49;5.38;;;2.35;;
80193;SDS011;69515;42.072;21.504;2024-03-02T03:21:16;4.47;;;2.63;;
80193;SDS011;69515;42.072;21.504;2024-03-02T03:23:42;4.55;;;2.30;;
80193;SDS011;69515;42.072;21.504;2024-03-02T03:26:08;4.53;;;2.50;;
80193;SDS011;69515;42.072;21.504;2024-03-02T03:28:35;4.38;;;2.50;;
80193;SDS011;69515;42.072;21.504;2024-03-02T03:31:01;4.20;;;2.13;;
80193;SDS011;69515;42.072;21.504;2024-03-02T03:33:28;4.13;;;2.45;;
80193;SDS011;69515;42.072;21.504;2024-03-02T03:35:54;4.80;;;2.55;;
80193;SDS011;69515;42.072;21.504;2024-03-02T03:38:21;4.18;;;2.13;;
80193;SDS011;69515;42.072;21.504;2024-03-02T03:40:47;3.97;;;2.28;;
80193;SDS011;69515;42.072;21.504;2024-03-02T03:43:13;4.65;;;2.25;;
80193;SDS011;69515;42.072;21.504;2024-03-02T03:45:39;3.60;;;1.80;;
80193;SDS011;69515;42.072;21.504;2024-03-02T03:48:06;3.83;;;1.83;;
80193;SDS011;69515;42.072;21.504;2024-03-02T03:50:32;3.50;;;1.60;;
80193;SDS011;69515;42.072;21.504;2024-03-02T03:52:58;5.00;;;2.20;;
80193;SDS011;69515;42.072;21.504;2024-03-02T03:55:25;3.50;;;1.90;;
80193;SDS011;69515;42.072;21.504;2024-03-02T03:57:51;3.85;;;1.73;;
80193;SDS011;69515;42.072;21.504;2024-03-02T04:00:17;3.55;;;1.75;;
80193;SDS011;69515;42.072;21.504;2024-03-02T04:02:43;3.90;;;1.88;;
80193;SDS011;69515;42.072;21.504;2024-03-02T04:05:09;3.75;;;1.80;;
80193;SDS011;69515;42.072;21.504;2024-03-02T04:07:36;4.22;;;1.80;;
80193;SDS011;69515;42.072;21.504;2024-03-02T04:10:08;4.72;;;2.05;;
80193;SDS011;69515;42.072;21.504;2024-03-02T04:12:35;5.15;;;1.90;;
80193;SDS011;69515;42.072;21.504;2024-03-02T04:15:02;4.35;;;2.05;;
80193;SDS011;69515;42.072;21.504;2024-03-02T04:17:29;3.88;;;1.67;;
80193;SDS011;69515;42.072;21.504;2024-03-02T04:19:55;6.22;;;1.60;;
80193;SDS011;69515;42.072;21.504;2024-03-02T04:22:21;3.97;;;1.83;;
80193;SDS011;69515;42.072;21.504;2024-03-02T04:24:47;6.20;;;2.22;;
80193;SDS011;69515;42.072;21.504;2024-03-02T04:27:14;6.88;;;2.00;;
80193;SDS011;69515;42.072;21.504;2024-03-02T04:29:40;7.78;;;2.00;;
80193;SDS011;69515;42.072;21.504;2024-03-02T04:32:06;3.63;;;1.90;;
80193;SDS011;69515;42.072;21.504;2024-03-02T04:34:32;5.03;;;1.80;;
80193;SDS011;69515;42.072;21.504;2024-03-02T04:36:59;4.97;;;2.17;;
80193;SDS011;69515;42.072;21.504;2024-03-02T04:39:25;4.97;;;2.38;;
80193;SDS011;69515;42.072;21.504;2024-03-02T04:41:51;4.65;;;2.40;;
80193;SDS011;69515;42.072;21.504;2024-03-02T04:44:17;4.68;;;2.65;;
80193;SDS011;69515;42.072;21.504;2024-03-02T04:46:44;6.88;;;3.40;;
80193;SDS011;69515;42.072;21.504;2024-03-02T04:49:10;6.50;;;4.13;;
80193;SDS011;69515;42.072;21.504;2024-03-02T04:51:36;6.93;;;4.28;;
80193;SDS011;69515;42.072;21.504;2024-03-02T04:54:02;5.38;;;3.25;;
80193;SDS011;69515;42.072;21.504;2024-03-02T04:56:29;7.05;;;3.50;;
80193;SDS011;69515;42.072;21.504;2024-03-02T04:59:09;11.30;;;3.53;;
80193;SDS011;69515;42.072;21.504;2024-03-02T05:01:35;5.45;;;3.33;;
80193;SDS011;69515;42.072;21.504;2024-03-02T05:04:02;6.63;;;3.38;;
80193;SDS011;69515;42.072;21.504;2024-03-02T05:06:28;7.32;;;3.15;;
80193;SDS011;69515;42.072;21.504;2024-03-02T05:08:55;6.55;;;3.35;;
80193;SDS011;69515;42.072;21.504;2024-03-02T05:11:21;6.18;;;3.53;;
80193;SDS011;69515;42.072;21.504;2024-03-02T05:14:03;6.20;;;3.35;;
80193;SDS011;69515;42.072;21.504;2024-03-02T05:16:32;5.85;;;2.90;;
80193;SDS011;69515;42.072;21.504;2024-03-02T05:18:59;5.75;;;2.90;;
80193;SDS011;69515;42.072;21.504;2024-03-02T05:21:25;4.85;;;2.55;;
80193;SDS011;69515;42.072;21.504;2024-03-02T05:23:51;5.40;;;2.90;;
80193;SDS011;69515;42.072;21.504;2024-03-02T05:26:17;5.55;;;2.70;;
80193;SDS011;69515;42.072;21.504;2024-03-02T05:28:44;5.47;;;2.78;;
80193;SDS011;69515;42.072;21.504;2024-03-02T05:31:10;4.38;;;2.40;;
80193;SDS011;69515;42.072;21.504;2024-03-02T05:33:39;5.55;;;2.97;;
80193;SDS011;69515;42.072;21.504;2024-03-02T05:36:06;4.78;;;2.63;;
80193;SDS011;69515;42.072;21.504;2024-03-02T05:38:34;5.18;;;2.58;;
80193;SDS011;69515;42.072;21.504;2024-03-02T05:41:00;4.88;;;2.65;;
80193;SDS011;69515;42.072;21.504;2024-03-02T05:43:27;5.57;;;3.15;;
80193;SDS011;69515;42.072;21.504;2024-03-02T05:45:53;5.35;;;2.60;;
80193;SDS011;69515;42.072;21.504;2024-03-02T05:48:19;5.78;;;2.90;;
80193;SDS011;69515;42.072;21.504;2024-03-02T05:50:46;5.07;;;2.60;;
80193;SDS011;69515;42.072;21.504;2024-03-02T05:53:12;6.20;;;3.13;;
80193;SDS011;69515;42.072;21.504;2024-03-02T05:55:38;7.60;;;3.10;;
80193;SDS011;69515;42.072;21.504;2024-03-02T05:58:04;5.22;;;3.10;;
80193;SDS011;69515;42.072;21.504;2024-03-02T06:00:31;7.18;;;3.53;;
80193;SDS011;69515;42.072;21.504;2024-03-02T06:02:57;7.38;;;3.17;;
80193;SDS011;69515;42.072;21.504;2024-03-02T06:05:23;5.43;;;2.95;;
80193;SDS011;69515;42.072;21.504;2024-03-02T06:07:50;8.52;;;3.10;;
80193;SDS011;69515;42.072;21.504;2024-03-02T06:10:16;8.32;;;3.05;;
80193;SDS011;69515;42.072;21.504;2024-03-02T06:12:42;6.43;;;3.00;;
80193;SDS011;69515;42.072;21.504;2024-03-02T06:15:09;9.30;;;3.60;;
80193;SDS011;69515;42.072;21.504;2024-03-02T06:17:38;5.68;;;3.13;;
80193;SDS011;69515;42.072;21.504;2024-03-02T06:20:04;7.03;;;3.53;;
80193;SDS011;69515;42.072;21.504;2024-03-02T06:22:33;6.45;;;3.55;;
80193;SDS011;69515;42.072;21.504;2024-03-02T06:24:59;5.05;;;2.53;;
80193;SDS011;69515;42.072;21.504;2024-03-02T06:27:25;5.07;;;2.50;;
80193;SDS011;69515;42.072;21.504;2024-03-02T06:29:52;4.55;;;2.20;;
80193;SDS011;69515;42.072;21.504;2024-03-02T06:32:19;4.78;;;2.10;;
80193;SDS011;69515;42.072;21.504;2024-03-02T06:34:46;5.13;;;2.92;;
80193;SDS011;69515;42.072;21.504;2024-03-02T06:37:12;6.32;;;2.13;;
80193;SDS011;69515;42.072;21.504;2024-03-02T06:39:38;6.10;;;2.47;;
80193;SDS011;69515;42.072;21.504;2024-03-02T06:42:04;4.65;;;1.58;;
80193;SDS011;69515;42.072;21.504;2024-03-02T06:44:31;5.50;;;2.05;;
80193;SDS011;69515;42.072;21.504;2024-03-02T06:46:57;3.22;;;1.55;;
80193;SDS011;69515;42.072;21.504;2024-03-02T06:49:23;5.45;;;1.92;;
80193;SDS011;69515;42.072;21.504;2024-03-02T06:51:49;5.07;;;1.70;;
80193;SDS011;69515;42.072;21.504;2024-03-02T06:54:16;5.78;;;2.42;;
80193;SDS011;69515;42.072;21.504;2024-03-02T06:56:42;5.88;;;2.83;;
80193;SDS011;69515;42.072;21.504;2024-03-02T06:59:08;7.18;;;2.40;;
80193;SDS011;69515;42.072;21.504;2024-03-02T07:01:34;6.55;;;3.00;;
80193;SDS011;69515;42.072;21.504;2024-03-02T07:04:01;10.40;;;4.80;;
80193;SDS011;69515;42.072;21.504;2024-03-02T07:06:27;8.57;;;4.50;;
80193;SDS011;69515;42.072;21.504;2024-03-02T07:08:53;8.32;;;4.53;;
80193;SDS011;69515;42.072;21.504;2024-03-02T07:11:19;6.35;;;3.70;;
80193;SDS011;69515;42.072;21.504;2024-03-02T07:13:46;9.55;;;4.57;;
80193;SDS011;69515;42.072;21.504;2024-03-02T07:16:12;7.00;;;3.83;;
80193;SDS011;69515;42.072;21.504;2024-03-02T07:18:53;8.95;;;5.35;;
80193;SDS011;69515;42.072;21.504;2024-03-02T07:21:20;9.73;;;4.90;;
80193;SDS011;69515;42.072;21.504;2024-03-02T07:23:50;8.07;;;5.13;;
80193;SDS011;69515;42.072;21.504;2024-03-02T07:26:16;7.95;;;4.93;;
80193;SDS011;69515;42.072;21.504;2024-03-02T07:28:46;8.15;;;4.88;;
80193;SDS011;69515;42.072;21.504;2024-03-02T07:31:15;9.70;;;6.10;;
80193;SDS011;69515;42.072;21.504;2024-03-02T07:33:43;9.85;;;6.28;;
80193;SDS011;69515;42.072;21.504;2024-03-02T07:36:10;9.10;;;6.28;;
80193;SDS011;69515;42.072;21.504;2024-03-02T07:38:36;10.00;;;6.82;;
80193;SDS011;69515;42.072;21.504;2024-03-02T07:41:03;9.05;;;5.90;;
80193;SDS011;69515;42.072;21.504;2024-03-02T07:43:30;8.73;;;5.72;;
80193;SDS011;69515;42.072;21.504;2024-03-02T07:45:58;11.25;;;6.05;;
80193;SDS011;69515;42.072;21.504;2024-03-02T07:48:24;8.25;;;5.78;;
80193;SDS011;69515;42.072;21.504;2024-03-02T07:50:52;9.45;;;5.20;;
80193;SDS011;69515;42.072;21.504;2024-03-02T07:53:18;8.43;;;4.82;;
80193;SDS011;69515;42.072;21.504;2024-03-02T07:55:44;9.23;;;5.38;;
80193;SDS011;69515;42.072;21.504;2024-03-02T07:58:10;8.85;;;5.70;;
80193;SDS011;69515;42.072;21.504;2024-03-02T08:00:40;7.85;;;4.53;;
80193;SDS011;69515;42.072;21.504;2024-03-02T08:03:07;6.10;;;3.45;;
80193;SDS011;69515;42.072;21.504;2024-03-02T08:05:36;6.85;;;3.90;;
80193;SDS011;69515;42.072;21.504;2024-03-02T08:08:03;9.88;;;4.22;;
80193;SDS011;69515;42.072;21.504;2024-03-02T08:10:30;5.38;;;3.10;;
80193;SDS011;69515;42.072;21.504;2024-03-02T08:12:56;9.52;;;4.32;;
80193;SDS011;69515;42.072;21.504;2024-03-02T08:15:22;8.07;;;4.57;;
80193;SDS011;69515;42.072;21.504;2024-03-02T08:17:49;9.10;;;4.75;;
80193;SDS011;69515;42.072;21.504;2024-03-02T08:20:15;8.82;;;4.53;;
80193;SDS011;69515;42.072;21.504;2024-03-02T08:22:41;7.80;;;4.75;;
80193;SDS011;69515;42.072;21.504;2024-03-02T08:25:09;7.70;;;5.07;;
80193;SDS011;69515;42.072;21.504;2024-03-02T08:27:35;7.95;;;5.50;;
80193;SDS011;69515;42.072;21.504;2024-03-02T08:30:02;10.43;;;6.55;;
80193;SDS011;69515;42.072;21.504;2024-03-02T08:32:31;10.95;;;6.22;;
80193;SDS011;69515;42.072;21.504;2024-03-02T08:34:57;12.07;;;6.35;;
80193;SDS011;69515;42.072;21.504;2024-03-02T08:37:23;8.75;;;5.85;;
80193;SDS011;69515;42.072;21.504;2024-03-02T08:39:50;10.00;;;6.53;;
80193;SDS011;69515;42.072;21.504;2024-03-02T08:42:16;9.00;;;6.00;;
80193;SDS011;69515;42.072;21.504;2024-03-02T08:44:42;9.15;;;5.85;;
80193;SDS011;69515;42.072;21.504;2024-03-02T08:47:09;10.80;;;6.20;;
80193;SDS011;69515;42.072;21.504;2024-03-02T08:49:36;8.57;;;6.15;;
80193;SDS011;69515;42.072;21.504;2024-03-02T08:52:02;9.27;;;6.15;;
80193;SDS011;69515;42.072;21.504;2024-03-02T08:54:29;10.02;;;5.95;;
80193;SDS011;69515;42.072;21.504;2024-03-02T08:56:55;9.75;;;5.85;;
80193;SDS011;69515;42.072;21.504;2024-03-02T08:59:21;10.30;;;5.97;;
80193;SDS011;69515;42.072;21.504;2024-03-02T09:01:50;11.00;;;5.82;;
80193;SDS011;69515;42.072;21.504;2024-03-02T09:04:16;8.88;;;6.00;;
80193;SDS011;69515;42.072;21.504;2024-03-02T09:06:42;8.15;;;5.65;;
80193;SDS011;69515;42.072;21.504;2024-03-02T09:09:08;9.73;;;5.75;;
80193;SDS011;69515;42.072;21.504;2024-03-02T09:11:34;7.22;;;5.22;;
80193;SDS011;69515;42.072;21.504;2024-03-02T09:14:01;8.20;;;6.28;;
80193;SDS011;69515;42.072;21.504;2024-03-02T09:16:27;9.90;;;5.70;;
80193;SDS011;69515;42.072;21.504;2024-03-02T09:18:56;9.23;;;5.85;;
80193;SDS011;69515;42.072;21.504;2024-03-02T09:21:22;8.93;;;4.78;;
80193;SDS011;69515;42.072;21.504;2024-03-02T09:23:48;8.75;;;5.35;;
80193;SDS011;69515;42.072;21.504;2024-03-02T09:26:14;8.50;;;5.55;;
80193;SDS011;69515;42.072;21.504;2024-03-02T09:28:44;9.15;;;5.72;;
80193;SDS011;69515;42.072;21.504;2024-03-02T09:31:11;8.65;;;5.18;;
80193;SDS011;69515;42.072;21.504;2024-03-02T09:33:37;10.63;;;6.47;;
80193;SDS011;69515;42.072;21.504;2024-03-02T09:36:04;10.90;;;5.88;;
80193;SDS011;69515;42.072;21.504;2024-03-02T09:38:33;11.25;;;6.63;;
80193;SDS011;69515;42.072;21.504;2024-03-02T09:41:00;7.80;;;5.65;;
80193;SDS011;69515;42.072;21.504;2024-03-02T09:43:26;10.95;;;5.25;;
80193;SDS011;69515;42.072;21.504;2024-03-02T09:45:53;8.85;;;5.25;;
80193;SDS011;69515;42.072;21.504;2024-03-02T09:48:19;9.02;;;5.60;;
80193;SDS011;69515;42.072;21.504;2024-03-02T09:50:45;9.40;;;5.75;;
80193;SDS011;69515;42.072;21.504;2024-03-02T09:53:12;9.50;;;5.78;;
80193;SDS011;69515;42.072;21.504;2024-03-02T09:55:40;6.55;;;3.50;;
80193;SDS011;69515;42.072;21.504;2024-03-02T09:58:09;8.85;;;4.50;;
80193;SDS011;69515;42.072;21.504;2024-03-02T10:00:35;7.38;;;4.07;;
80193;SDS011;69515;42.072;21.504;2024-03-02T10:03:01;8.95;;;4.70;;
80193;SDS011;69515;42.072;21.504;2024-03-02T10:05:29;8.18;;;4.78;;
80193;SDS011;69515;42.072;21.504;2024-03-02T10:08:02;8.68;;;4.72;;
80193;SDS011;69515;42.072;21.504;2024-03-02T10:10:35;7.35;;;4.70;;
80193;SDS011;69515;42.072;21.504;2024-03-02T10:13:05;9.90;;;4.85;;
80193;SDS011;69515;42.072;21.504;2024-03-02T10:15:31;7.10;;;4.07;;
80193;SDS011;69515;42.072;21.504;2024-03-02T10:17:58;8.90;;;4.63;;
80193;SDS011;69515;42.072;21.504;2024-03-02T10:20:27;7.03;;;4.25;;
80193;SDS011;69515;42.072;21.504;2024-03-02T10:22:54;6.97;;;4.13;;
80193;SDS011;69515;42.072;21.504;2024-03-02T10:25:30;6.95;;;4.25;;
80193;SDS011;69515;42.072;21.504;2024-03-02T10:27:59;7.90;;;4.45;;
80193;SDS011;69515;42.072;21.504;2024-03-02T10:30:28;8.32;;;4.50;;
80193;SDS011;69515;42.072;21.504;2024-03-02T10:32:55;6.47;;;3.92;;
80193;SDS011;69515;42.072;21.504;2024-03-02T10:35:24;7.72;;;3.92;;
80193;SDS011;69515;42.072;21.504;2024-03-02T10:37:51;7.80;;;4.20;;
80193;SDS011;69515;42.072;21.504;2024-03-02T10:40:18;7.28;;;4.40;;
80193;SDS011;69515;42.072;21.504;2024-03-02T10:42:44;8.52;;;4.53;;
80193;SDS011;69515;42.072;21.504;2024-03-02T10:45:12;6.20;;;4.03;;
80193;SDS011;69515;42.072;21.504;2024-03-02T10:47:38;9.00;;;4.10;;
80193;SDS011;69515;42.072;21.504;2024-03-02T10:50:04;7.97;;;4.50;;
80193;SDS011;69515;42.072;21.504;2024-03-02T10:52:34;7.30;;;4.18;;
80193;SDS011;69515;42.072;21.504;2024-03-02T10:55:01;7.63;;;4.45;;
80193;SDS011;69515;42.072;21.504;2024-03-02T10:57:36;7.28;;;4.18;;
80193;SDS011;69515;42.072;21.504;2024-03-02T11:00:06;8.52;;;3.53;;
80193;SDS011;69515;42.072;21.504;2024-03-02T11:02:41;7.70;;;3.70;;
80193;SDS011;69515;42.072;21.504;2024-03-02T11:05:08;6.60;;;3.50;;
80193;SDS011;69515;42.072;21.504;2024-03-02T11:07:36;6.88;;;3.60;;
80193;SDS011;69515;42.072;21.504;2024-03-02T11:10:03;6.22;;;3.50;;
80193;SDS011;69515;42.072;21.504;2024-03-02T11:12:38;7.20;;;3.10;;
80193;SDS011;69515;42.072;21.504;2024-03-02T11:15:08;8.10;;;3.65;;
80193;SDS011;69515;42.072;21.504;2024-03-02T11:17:36;5.63;;;3.40;;
80193;SDS011;69515;42.072;21.504;2024-03-02T11:20:03;6.45;;;3.65;;
80193;SDS011;69515;42.072;21.504;2024-03-02T11:22:30;6.40;;;3.40;;
80193;SDS011;69515;42.072;21.504;2024-03-02T11:24:57;8.23;;;3.65;;
80193;SDS011;69515;42.072;21.504;2024-03-02T11:30:09;6.75;;;3.10;;
80193;SDS011;69515;42.072;21.504;2024-03-02T11:32:55;5.13;;;2.80;;
80193;SDS011;69515;42.072;21.504;2024-03-02T11:35:22;5.93;;;3.42;;
80193;SDS011;69515;42.072;21.504;2024-03-02T11:37:51;7.28;;;3.00;;
80193;SDS011;69515;42.072;21.504;2024-03-02T11:40:23;6.82;;;3.90;;
80193;SDS011;69515;42.072;21.504;2024-03-02T11:42:50;7.45;;;3.55;;
80193;SDS011;69515;42.072;21.504;2024-03-02T11:45:17;6.00;;;3.80;;
80193;SDS011;69515;42.072;21.504;2024-03-02T11:47:46;8.02;;;4.35;;
80193;SDS011;69515;42.072;21.504;2024-03-02T11:50:15;7.47;;;3.78;;
80193;SDS011;69515;42.072;21.504;2024-03-02T11:55:20;7.85;;;4.00;;
80193;SDS011;69515;42.072;21.504;2024-03-02T11:57:47;8.82;;;4.28;;
80193;SDS011;69515;42.072;21.504;2024-03-02T12:00:17;7.75;;;3.70;;
80193;SDS011;69515;42.072;21.504;2024-03-02T12:02:44;6.95;;;4.25;;
80193;SDS011;69515;42.072;21.504;2024-03-02T12:05:14;6.40;;;3.53;;
80193;SDS011;69515;42.072;21.504;2024-03-02T12:07:45;6.97;;;4.15;;
80193;SDS011;69515;42.072;21.504;2024-03-02T12:10:13;6.90;;;3.50;;
80193;SDS011;69515;42.072;21.504;2024-03-02T12:12:41;8.25;;;3.92;;
80193;SDS011;69515;42.072;21.504;2024-03-02T12:15:07;6.53;;;3.72;;
80193;SDS011;69515;42.072;21.504;2024-03-02T12:17:35;7.47;;;3.42;;
80193;SDS011;69515;42.072;21.504;2024-03-02T12:20:04;8.23;;;3.22;;
80193;SDS011;69515;42.072;21.504;2024-03-02T12:22:30;7.10;;;3.30;;
80193;SDS011;69515;42.072;21.504;2024-03-02T12:24:57;7.22;;;3.47;;
80193;SDS011;69515;42.072;21.504;2024-03-02T12:27:23;8.30;;;3.15;;
80193;SDS011;69515;42.072;21.504;2024-03-02T12:29:49;6.13;;;3.40;;
80193;SDS011;69515;42.072;21.504;2024-03-02T12:32:16;5.38;;;2.63;;
80193;SDS011;69515;42.072;21.504;2024-03-02T12:34:42;6.40;;;2.47;;
80193;SDS011;69515;42.072;21.504;2024-03-02T12:37:11;7.00;;;2.30;;
80193;SDS011;69515;42.072;21.504;2024-03-02T12:39:38;6.00;;;2.50;;
80193;SDS011;69515;42.072;21.504;2024-03-02T12:42:04;5.72;;;2.58;;
80193;SDS011;69515;42.072;21.504;2024-03-02T12:44:32;4.28;;;2.10;;
80193;SDS011;69515;42.072;21.504;2024-03-02T12:46:58;4.70;;;1.92;;
80193;SDS011;69515;42.072;21.504;2024-03-02T12:49:24;5.53;;;1.85;;
80193;SDS011;69515;42.072;21.504;2024-03-02T12:51:52;5.47;;;2.40;;
80193;SDS011;69515;42.072;21.504;2024-03-02T12:54:21;5.30;;;2.10;;
80193;SDS011;69515;42.072;21.504;2024-03-02T12:56:50;5.25;;;2.40;;
80193;SDS011;69515;42.072;21.504;2024-03-02T12:59:19;4.10;;;1.60;;
80193;SDS011;69515;42.072;21.504;2024-03-02T13:01:52;5.05;;;1.70;;
80193;SDS011;69515;42.072;21.504;2024-03-02T13:04:24;4.57;;;1.80;;
80193;SDS011;69515;42.072;21.504;2024-03-02T13:06:51;5.38;;;1.90;;
80193;SDS011;69515;42.072;21.504;2024-03-02T13:09:18;5.93;;;2.00;;
80193;SDS011;69515;42.072;21.504;2024-03-02T13:11:44;3.80;;;1.92;;
80193;SDS011;69515;42.072;21.504;2024-03-02T13:14:11;6.65;;;2.03;;
80193;SDS011;69515;42.072;21.504;2024-03-02T13:16:40;5.05;;;2.17;;
80193;SDS011;69515;42.072;21.504;2024-03-02T13:19:07;6.05;;;2.30;;
80193;SDS011;69515;42.072;21.504;2024-03-02T13:21:33;9.68;;;3.95;;
80193;SDS011;69515;42.072;21.504;2024-03-02T13:24:00;8.50;;;3.58;;
80193;SDS011;69515;42.072;21.504;2024-03-02T13:26:26;6.40;;;2.70;;
80193;SDS011;69515;42.072;21.504;2024-03-02T13:28:52;7.68;;;2.53;;
80193;SDS011;69515;42.072;21.504;2024-03-02T13:31:19;5.22;;;2.00;;
80193;SDS011;69515;42.072;21.504;2024-03-02T13:33:46;6.53;;;2.22;;
80193;SDS011;69515;42.072;21.504;2024-03-02T13:36:12;5.05;;;1.80;;
80193;SDS011;69515;42.072;21.504;2024-03-02T13:38:38;4.78;;;1.50;;
80193;SDS011;69515;42.072;21.504;2024-03-02T13:41:04;5.78;;;2.63;;
80193;SDS011;69515;42.072;21.504;2024-03-02T13:43:31;6.43;;;2.20;;
80193;SDS011;69515;42.072;21.504;2024-03-02T13:46:01;6.88;;;1.98;;
80193;SDS011;69515;42.072;21.504;2024-03-02T13:48:27;6.35;;;2.50;;
80193;SDS011;69515;42.072;21.504;2024-03-02T13:50:54;7.22;;;2.72;;
80193;SDS011;69515;42.072;21.504;2024-03-02T13:53:20;6.43;;;3.05;;
80193;SDS011;69515;42.072;21.504;2024-03-02T13:55:46;6.95;;;2.92;;
80193;SDS011;69515;42.072;21.504;2024-03-02T13:58:13;6.95;;;3.47;;
80193;SDS011;69515;42.072;21.504;2024-03-02T14:00:39;6.35;;;2.60;;
80193;SDS011;69515;42.072;21.504;2024-03-02T14:03:08;6.68;;;2.72;;
80193;SDS011;69515;42.072;21.504;2024-03-02T14:05:34;4.53;;;1.92;;
80193;SDS011;69515;42.072;21.504;2024-03-02T14:08:02;4.30;;;2.42;;
80193;SDS011;69515;42.072;21.504;2024-03-02T14:10:29;4.05;;;2.35;;
80193;SDS011;69515;42.072;21.504;2024-03-02T14:12:55;5.07;;;2.38;;
80193;SDS011;69515;42.072;21.504;2024-03-02T14:15:22;4.53;;;1.85;;
80193;SDS011;69515;42.072;21.504;2024-03-02T14:17:49;5.68;;;2.15;;
80193;SDS011;69515;42.072;21.504;2024-03-02T14:20:15;5.00;;;2.38;;
80193;SDS011;69515;42.072;21.504;2024-03-02T14:22:47;7.22;;;2.85;;
80193;SDS011;69515;42.072;21.504;2024-03-02T14:25:13;8.35;;;3.13;;
80193;SDS011;69515;42.072;21.504;2024-03-02T14:27:39;4.97;;;2.20;;
80193;SDS011;69515;42.072;21.504;2024-03-02T14:30:05;6.25;;;2.80;;
80193;SDS011;69515;42.072;21.504;2024-03-02T14:32:32;7.28;;;2.88;;
80193;SDS011;69515;42.072;21.504;2024-03-02T14:34:58;8.65;;;3.10;;
80193;SDS011;69515;42.072;21.504;2024-03-02T14:37:24;6.45;;;2.58;;
80193;SDS011;69515;42.072;21.504;2024-03-02T14:39:50;7.28;;;2.75;;